createdAt,value
2023-01-12T00:02:13.787Z,23.60
2023-01-12T00:07:18.894Z,23.60
2023-01-12T00:12:21.694Z,23.50
2023-01-12T00:17:24.589Z,23.40
2023-01-12T00:22:28.775Z,23.40
2023-01-12T00:27:31.746Z,23.30
2023-01-12T00:32:34.662Z,23.30
2023-01-12T00:37:38.825Z,23.20
2023-01-12T00:42:59.189Z,23.20
2023-01-12T00:48:02.042Z,23.10
2023-01-12T00:53:06.259Z,23.10
2023-01-12T00:58:09.107Z,23.00
2023-01-12T01:03:11.962Z,23.00
2023-01-12T01:08:16.154Z,22.90
2023-01-12T01:13:18.948Z,22.80
2023-01-12T01:18:21.787Z,22.80
2023-01-12T01:23:27.601Z,22.80
2023-01-12T01:28:30.459Z,22.80
2023-01-12T01:33:33.327Z,22.80
2023-01-12T01:38:38.103Z,22.80
2023-01-12T01:43:52.865Z,22.90
2023-01-12T01:48:56.214Z,22.80
2023-01-12T01:54:01.230Z,22.80
2023-01-12T01:59:07.862Z,22.80
2023-01-12T02:04:11.519Z,22.70
2023-01-12T02:09:22.189Z,22.70
2023-01-12T02:14:42.847Z,22.60
2023-01-12T02:20:34.244Z,22.60
2023-01-12T02:26:04.940Z,22.60
2023-01-12T02:31:25.236Z,22.50
2023-01-12T02:36:36.299Z,22.50
2023-01-12T02:42:05.885Z,22.40
2023-01-12T02:47:23.393Z,22.40
2023-01-12T02:52:28.428Z,22.30
2023-01-12T02:57:34.205Z,22.30
2023-01-12T03:02:39.355Z,22.30
2023-01-12T03:07:48.038Z,22.30
2023-01-12T03:12:52.420Z,22.30
2023-01-12T03:18:00.821Z,22.30
2023-01-12T03:23:10.702Z,22.30
2023-01-12T03:28:15.373Z,22.30
2023-01-12T03:33:19.835Z,22.20
2023-01-12T03:38:28.465Z,22.20
2023-01-12T03:43:36.542Z,22.20
2023-01-12T03:48:45.821Z,22.10
2023-01-12T03:53:51.942Z,22.10
2023-01-12T03:58:54.748Z,22.10
2023-01-12T04:03:58.931Z,22.10
2023-01-12T04:09:02.364Z,22.00
2023-01-12T04:14:05.301Z,22.00
2023-01-12T04:19:09.437Z,22.00
2023-01-12T04:24:12.264Z,22.00
2023-01-12T04:29:15.131Z,22.00
2023-01-12T04:34:19.628Z,22.00
2023-01-12T04:39:22.459Z,22.00
2023-01-12T04:44:25.322Z,22.00
2023-01-12T04:49:29.467Z,22.00
2023-01-12T04:54:32.251Z,21.90
2023-01-12T04:59:35.079Z,21.90
2023-01-12T05:04:39.357Z,21.80
2023-01-12T05:09:59.523Z,21.80
2023-01-12T05:15:03.592Z,21.70
2023-01-12T05:20:09.414Z,21.70
2023-01-12T05:25:12.345Z,21.70
2023-01-12T05:30:15.810Z,21.80
2023-01-12T05:35:20.081Z,21.90
2023-01-12T05:40:22.919Z,22.00
2023-01-12T05:45:26.261Z,22.00
2023-01-12T05:50:30.720Z,22.00
2023-01-12T05:55:33.582Z,22.00
2023-01-12T06:00:36.392Z,22.00
2023-01-12T06:05:40.619Z,22.00
2023-01-12T06:10:43.449Z,21.90
2023-01-12T06:15:46.381Z,21.90
2023-01-12T06:20:50.582Z,21.80
2023-01-12T06:25:53.381Z,21.80
2023-01-12T06:30:57.610Z,21.80
2023-01-12T06:36:02.314Z,21.80
2023-01-12T06:41:06.802Z,21.70
2023-01-12T06:46:09.681Z,21.70
2023-01-12T06:51:13.841Z,21.70
2023-01-12T06:56:16.740Z,21.70
2023-01-12T07:01:19.729Z,21.70
2023-01-12T07:06:24.021Z,21.70
2023-01-12T07:11:26.958Z,21.70
2023-01-12T07:16:29.806Z,21.70
2023-01-12T07:21:34.015Z,21.70
2023-01-12T07:26:37.116Z,21.80
2023-01-12T07:31:40.016Z,21.80
2023-01-12T07:36:44.179Z,22.00
2023-01-12T07:42:04.419Z,22.00
2023-01-12T07:47:07.237Z,22.00
2023-01-12T07:52:12.848Z,22.00
2023-01-12T07:57:15.672Z,22.00
2023-01-12T08:02:19.341Z,22.00
2023-01-12T08:07:23.668Z,22.00
2023-01-12T08:12:26.465Z,21.90
2023-01-12T08:17:29.381Z,22.00
2023-01-12T08:22:37.146Z,21.90
2023-01-12T08:27:44.662Z,21.90
2023-01-12T08:32:47.571Z,21.90
2023-01-12T08:37:51.862Z,21.90
2023-01-12T08:42:54.752Z,21.90
2023-01-12T08:47:57.570Z,21.80
2023-01-12T08:53:01.802Z,21.80
2023-01-12T08:58:04.684Z,21.80
2023-01-12T09:03:07.547Z,21.80
2023-01-12T09:08:11.774Z,21.80
2023-01-12T09:13:15.863Z,21.80
2023-01-12T09:18:20.245Z,21.80
2023-01-12T09:23:24.544Z,21.70
2023-01-12T09:28:27.340Z,21.70
2023-01-12T09:33:31.175Z,21.70
2023-01-12T09:38:36.588Z,21.70
2023-01-12T09:43:59.151Z,21.70
2023-01-12T09:49:02.037Z,21.70
2023-01-12T09:54:07.123Z,21.70
2023-01-12T09:59:25.044Z,21.70
2023-01-12T10:04:28.043Z,21.70
2023-01-12T10:09:34.622Z,21.70
2023-01-12T10:14:58.208Z,21.70
2023-01-12T10:20:11.098Z,21.70
2023-01-12T10:25:26.914Z,21.70
2023-01-12T10:30:32.550Z,21.60
2023-01-12T10:35:35.376Z,21.60
2023-01-12T10:40:39.669Z,21.60
2023-01-12T10:45:43.815Z,21.60
2023-01-12T10:50:58.214Z,21.50
2023-01-12T10:56:13.965Z,21.40
2023-01-12T11:01:16.801Z,21.50
2023-01-12T11:06:28.941Z,21.60
2023-01-12T11:11:34.150Z,21.70
2023-01-12T11:16:45.382Z,21.90
2023-01-12T11:21:53.279Z,22.00
2023-01-12T11:27:00.741Z,22.10
2023-01-12T11:32:09.647Z,22.20
2023-01-12T11:37:14.510Z,22.30
2023-01-12T11:42:40.210Z,22.30
2023-01-12T11:47:49.388Z,22.40
2023-01-12T11:52:52.591Z,22.40
2023-01-12T11:58:07.367Z,22.40
2023-01-12T12:03:33.903Z,22.50
2023-01-12T12:08:47.893Z,22.70
2023-01-12T12:14:01.838Z,22.80
2023-01-12T12:19:17.050Z,22.80
2023-01-12T12:24:39.022Z,22.90
2023-01-12T12:30:19.501Z,22.90
2023-01-12T12:35:33.068Z,22.80
2023-01-12T12:41:03.254Z,22.80
2023-01-12T12:46:16.421Z,22.80
2023-01-12T12:51:20.695Z,22.70
2023-01-12T12:56:26.147Z,22.70
2023-01-12T13:01:43.489Z,22.60
2023-01-12T13:06:49.208Z,22.50
2023-01-12T13:11:54.620Z,22.50
2023-01-12T13:17:01.599Z,22.70
2023-01-12T13:22:27.983Z,22.80
2023-01-12T13:27:55.745Z,22.80
2023-01-12T13:33:01.292Z,22.80
2023-01-12T13:38:12.740Z,22.80
2023-01-12T13:43:21.988Z,22.80
2023-01-12T13:48:28.627Z,22.80
2023-01-12T13:53:32.796Z,22.80
2023-01-12T13:58:41.157Z,22.70
2023-01-12T14:04:15.658Z,22.70
2023-01-12T14:09:30.490Z,22.70
2023-01-12T14:15:09.993Z,22.60
2023-01-12T14:20:18.128Z,22.50
2023-01-12T14:25:23.372Z,22.60
2023-01-12T14:30:28.492Z,22.60
2023-01-12T14:35:32.667Z,22.70
2023-01-12T14:40:35.625Z,22.70
2023-01-12T14:45:59.739Z,22.80
2023-01-12T14:51:17.789Z,22.80
2023-01-12T14:56:24.802Z,22.80
2023-01-12T15:01:33.797Z,22.70
2023-01-12T15:06:41.046Z,22.70
2023-01-12T15:11:43.900Z,22.70
2023-01-12T15:17:04.402Z,22.70
2023-01-12T15:22:28.993Z,22.80
2023-01-12T15:27:32.978Z,22.80
2023-01-12T15:32:47.451Z,22.80
2023-01-12T15:37:53.796Z,22.70
2023-01-12T15:42:58.915Z,22.70
2023-01-12T15:48:02.001Z,22.70
2023-01-12T15:53:11.307Z,22.60
2023-01-12T15:58:14.267Z,22.70
2023-01-12T16:03:48.996Z,22.70
2023-01-12T16:08:42.271Z,22.80
2023-01-12T16:13:45.105Z,22.80
2023-01-12T16:18:48.653Z,22.80
2023-01-12T16:23:53.513Z,22.80
2023-01-12T16:28:57.511Z,22.70
2023-01-12T16:34:00.525Z,22.70
2023-01-12T16:39:04.878Z,22.60
2023-01-12T16:44:07.830Z,22.50
2023-01-12T16:49:10.692Z,22.60
2023-01-12T16:54:14.877Z,22.70
2023-01-12T16:59:17.693Z,22.80
2023-01-12T17:04:21.140Z,22.80
2023-01-12T17:09:25.537Z,22.80
2023-01-12T17:14:33.215Z,22.70
2023-01-12T17:19:38.249Z,22.70
2023-01-12T17:24:42.869Z,22.60
2023-01-12T17:29:47.994Z,22.60
2023-01-12T17:34:51.204Z,22.60
2023-01-12T17:39:55.469Z,22.60
2023-01-12T17:44:58.388Z,22.50
2023-01-12T17:50:01.175Z,22.50
2023-01-12T17:55:06.029Z,22.50
2023-01-12T18:00:10.785Z,22.60
2023-01-12T18:05:13.675Z,23.00
2023-01-12T18:10:18.492Z,23.30
2023-01-12T18:15:21.363Z,23.80
2023-01-12T18:20:25.014Z,24.20
2023-01-12T18:25:29.831Z,24.40
2023-01-12T18:30:32.694Z,24.70
2023-01-12T18:35:37.510Z,24.80
2023-01-12T18:40:41.671Z,25.00
2023-01-12T18:45:44.513Z,25.10
2023-01-12T18:51:04.652Z,25.20
2023-01-12T18:56:09.115Z,25.20
2023-01-12T19:01:13.417Z,25.30
2023-01-12T19:06:23.505Z,25.30
2023-01-12T19:11:27.680Z,25.30
2023-01-12T19:16:48.485Z,25.30
2023-01-12T19:22:08.719Z,25.40
2023-01-12T19:27:31.593Z,25.40
2023-01-12T19:32:34.407Z,25.40
2023-01-12T19:37:37.409Z,25.40
2023-01-12T19:42:59.305Z,25.40
2023-01-12T19:48:03.631Z,25.40
2023-01-12T19:53:09.578Z,25.40
2023-01-12T19:58:13.853Z,25.40
2023-01-12T20:03:18.351Z,25.60
2023-01-12T20:08:23.267Z,25.70
2023-01-12T20:13:28.423Z,25.70
2023-01-12T20:18:31.505Z,25.70
2023-01-12T20:23:34.398Z,25.80
2023-01-12T20:28:38.569Z,25.90
2023-01-12T20:33:41.893Z,25.90
2023-01-12T20:38:46.863Z,26.00
2023-01-12T20:43:51.085Z,26.10
2023-01-12T20:48:53.999Z,26.10
2023-01-12T20:53:58.425Z,26.20
2023-01-12T20:59:04.162Z,26.40
2023-01-12T21:04:07.067Z,26.50
2023-01-12T21:09:10.031Z,26.60
2023-01-12T21:14:14.265Z,26.60
2023-01-12T21:19:17.086Z,26.60
2023-01-12T21:24:19.974Z,26.50
2023-01-12T21:29:25.299Z,26.50
2023-01-12T21:34:28.083Z,26.50
2023-01-12T21:39:30.914Z,26.40
2023-01-12T21:44:35.431Z,26.40
2023-01-12T21:49:38.340Z,26.30
2023-01-12T21:54:41.255Z,26.30
2023-01-12T21:59:45.397Z,26.20
2023-01-12T22:04:48.194Z,26.20
2023-01-12T22:09:51.078Z,26.10
2023-01-12T22:14:55.338Z,26.10
2023-01-12T22:19:58.170Z,26.10
2023-01-12T22:25:01.001Z,26.10
2023-01-12T22:30:07.032Z,26.00
2023-01-12T22:35:10.927Z,26.00
2023-01-12T22:40:15.834Z,26.00
2023-01-12T22:45:20.576Z,26.00
2023-01-12T22:50:24.607Z,26.00
2023-01-12T22:55:27.426Z,25.90
2023-01-12T23:00:39.677Z,25.90
2023-01-12T23:05:47.586Z,25.90
2023-01-12T23:10:50.494Z,25.90
2023-01-12T23:15:57.925Z,25.80
2023-01-12T23:21:03.072Z,25.80
2023-01-12T23:26:08.860Z,25.80
2023-01-12T23:31:15.084Z,25.60
2023-01-12T23:36:19.694Z,25.50
2023-01-12T23:41:24.557Z,25.40
2023-01-12T23:46:30.049Z,25.30
2023-01-12T23:51:33.523Z,25.20
2023-01-12T23:56:36.334Z,25.10
